sensor_id;sensor_type;location;lat;lon;timestamp;P1;durP1;ratioP1;P2;durP2;ratioP2
59756;SDS011;45631;51.962;5.974;2023-08-01T00:01:30;11.60;;;6.15;;
59756;SDS011;45631;51.962;5.974;2023-08-01T00:03:59;11.95;;;6.32;;
59756;SDS011;45631;51.962;5.974;2023-08-01T00:06:27;12.35;;;6.38;;
59756;SDS011;45631;51.962;5.974;2023-08-01T00:08:56;9.85;;;6.13;;
59756;SDS011;45631;51.962;5.974;2023-08-01T00:11:24;10.20;;;6.05;;
59756;SDS011;45631;51.962;5.974;2023-08-01T00:13:52;11.40;;;6.38;;
59756;SDS011;45631;51.962;5.974;2023-08-01T00:20:55;13.93;;;7.25;;
59756;SDS011;45631;51.962;5.974;2023-08-01T00:23:25;12.38;;;7.07;;
59756;SDS011;45631;51.962;5.974;2023-08-01T00:25:53;11.40;;;7.25;;
59756;SDS011;45631;51.962;5.974;2023-08-01T00:28:22;11.82;;;7.45;;
59756;SDS011;45631;51.962;5.974;2023-08-01T00:30:50;12.18;;;7.53;;
59756;SDS011;45631;51.962;5.974;2023-08-01T00:33:18;10.88;;;7.03;;
59756;SDS011;45631;51.962;5.974;2023-08-01T00:35:52;9.15;;;5.35;;
59756;SDS011;45631;51.962;5.974;2023-08-01T00:38:22;9.23;;;5.45;;
59756;SDS011;45631;51.962;5.974;2023-08-01T00:40:51;11.98;;;5.68;;
59756;SDS011;45631;51.962;5.974;2023-08-01T00:43:19;9.57;;;5.28;;
59756;SDS011;45631;51.962;5.974;2023-08-01T00:45:47;10.18;;;4.85;;
59756;SDS011;45631;51.962;5.974;2023-08-01T00:48:16;8.55;;;4.20;;
59756;SDS011;45631;51.962;5.974;2023-08-01T00:50:45;7.55;;;4.22;;
59756;SDS011;45631;51.962;5.974;2023-08-01T00:53:14;10.20;;;4.97;;
59756;SDS011;45631;51.962;5.974;2023-08-01T00:55:44;12.15;;;4.72;;
59756;SDS011;45631;51.962;5.974;2023-08-01T00:58:13;8.73;;;4.70;;
59756;SDS011;45631;51.962;5.974;2023-08-01T01:00:41;9.57;;;4.50;;
59756;SDS011;45631;51.962;5.974;2023-08-01T01:03:10;12.98;;;5.57;;
59756;SDS011;45631;51.962;5.974;2023-08-01T01:05:38;9.70;;;4.75;;
59756;SDS011;45631;51.962;5.974;2023-08-01T01:12:55;9.95;;;4.40;;
59756;SDS011;45631;51.962;5.974;2023-08-01T01:15:24;10.05;;;4.50;;
59756;SDS011;45631;51.962;5.974;2023-08-01T01:17:52;12.68;;;4.32;;
59756;SDS011;45631;51.962;5.974;2023-08-01T01:20:22;10.57;;;3.72;;
59756;SDS011;45631;51.962;5.974;2023-08-01T01:22:53;12.02;;;4.45;;
59756;SDS011;45631;51.962;5.974;2023-08-01T01:25:23;8.70;;;3.77;;
59756;SDS011;45631;51.962;5.974;2023-08-01T01:27:53;10.18;;;3.63;;
59756;SDS011;45631;51.962;5.974;2023-08-01T01:30:22;10.18;;;3.65;;
59756;SDS011;45631;51.962;5.974;2023-08-01T01:32:51;9.15;;;5.30;;
59756;SDS011;45631;51.962;5.974;2023-08-01T01:35:20;8.05;;;4.70;;
59756;SDS011;45631;51.962;5.974;2023-08-01T01:37:48;12.32;;;5.35;;
59756;SDS011;45631;51.962;5.974;2023-08-01T01:40:18;9.98;;;5.10;;
59756;SDS011;45631;51.962;5.974;2023-08-01T01:42:46;11.10;;;5.82;;
59756;SDS011;45631;51.962;5.974;2023-08-01T01:45:15;12.25;;;6.47;;
59756;SDS011;45631;51.962;5.974;2023-08-01T01:47:44;11.27;;;5.63;;
59756;SDS011;45631;51.962;5.974;2023-08-01T01:50:12;12.77;;;5.97;;
59756;SDS011;45631;51.962;5.974;2023-08-01T01:52:41;11.32;;;5.75;;
59756;SDS011;45631;51.962;5.974;2023-08-01T01:55:09;10.88;;;5.35;;
59756;SDS011;45631;51.962;5.974;2023-08-01T01:57:39;11.38;;;5.78;;
59756;SDS011;45631;51.962;5.974;2023-08-01T02:03:21;11.45;;;5.30;;
59756;SDS011;45631;51.962;5.974;2023-08-01T02:05:49;11.38;;;5.50;;
59756;SDS011;45631;51.962;5.974;2023-08-01T02:08:17;12.82;;;5.75;;
59756;SDS011;45631;51.962;5.974;2023-08-01T02:10:46;9.02;;;5.25;;
59756;SDS011;45631;51.962;5.974;2023-08-01T02:13:17;11.73;;;5.00;;
59756;SDS011;45631;51.962;5.974;2023-08-01T02:15:45;8.73;;;4.90;;
59756;SDS011;45631;51.962;5.974;2023-08-01T02:18:13;10.65;;;5.32;;
59756;SDS011;45631;51.962;5.974;2023-08-01T02:20:42;10.50;;;5.20;;
59756;SDS011;45631;51.962;5.974;2023-08-01T02:23:10;10.40;;;5.18;;
59756;SDS011;45631;51.962;5.974;2023-08-01T02:25:42;11.67;;;5.20;;
59756;SDS011;45631;51.962;5.974;2023-08-01T02:28:12;11.07;;;5.35;;
59756;SDS011;45631;51.962;5.974;2023-08-01T02:30:42;14.70;;;5.28;;
59756;SDS011;45631;51.962;5.974;2023-08-01T02:33:11;13.13;;;5.85;;
59756;SDS011;45631;51.962;5.974;2023-08-01T02:35:40;10.77;;;5.18;;
59756;SDS011;45631;51.962;5.974;2023-08-01T02:38:08;13.70;;;5.38;;
59756;SDS011;45631;51.962;5.974;2023-08-01T02:40:36;12.32;;;5.65;;
59756;SDS011;45631;51.962;5.974;2023-08-01T02:43:05;12.93;;;6.32;;
59756;SDS011;45631;51.962;5.974;2023-08-01T02:45:33;15.27;;;5.82;;
59756;SDS011;45631;51.962;5.974;2023-08-01T02:48:03;12.80;;;5.60;;
59756;SDS011;45631;51.962;5.974;2023-08-01T02:50:31;13.95;;;6.53;;
59756;SDS011;45631;51.962;5.974;2023-08-01T02:53:00;12.90;;;6.28;;
59756;SDS011;45631;51.962;5.974;2023-08-01T02:55:28;10.50;;;6.25;;
59756;SDS011;45631;51.962;5.974;2023-08-01T02:57:56;11.48;;;6.30;;
59756;SDS011;45631;51.962;5.974;2023-08-01T03:00:25;13.00;;;6.22;;
59756;SDS011;45631;51.962;5.974;2023-08-01T03:02:53;11.75;;;6.28;;
59756;SDS011;45631;51.962;5.974;2023-08-01T03:05:23;11.45;;;7.18;;
59756;SDS011;45631;51.962;5.974;2023-08-01T03:07:51;13.68;;;6.88;;
59756;SDS011;45631;51.962;5.974;2023-08-01T03:10:19;15.35;;;7.25;;
59756;SDS011;45631;51.962;5.974;2023-08-01T03:13:02;13.35;;;6.18;;
59756;SDS011;45631;51.962;5.974;2023-08-01T03:15:30;16.02;;;8.00;;
59756;SDS011;45631;51.962;5.974;2023-08-01T03:17:59;15.75;;;7.35;;
59756;SDS011;45631;51.962;5.974;2023-08-01T03:20:29;14.50;;;7.50;;
59756;SDS011;45631;51.962;5.974;2023-08-01T03:22:57;16.42;;;6.47;;
59756;SDS011;45631;51.962;5.974;2023-08-01T03:25:25;12.77;;;6.93;;
59756;SDS011;45631;51.962;5.974;2023-08-01T03:27:54;15.18;;;6.82;;
59756;SDS011;45631;51.962;5.974;2023-08-01T03:30:22;14.38;;;7.00;;
59756;SDS011;45631;51.962;5.974;2023-08-01T03:32:51;11.43;;;6.60;;
59756;SDS011;45631;51.962;5.974;2023-08-01T03:35:19;13.95;;;6.72;;
59756;SDS011;45631;51.962;5.974;2023-08-01T03:42:11;16.20;;;7.68;;
59756;SDS011;45631;51.962;5.974;2023-08-01T03:44:40;14.60;;;7.25;;
59756;SDS011;45631;51.962;5.974;2023-08-01T03:47:08;17.42;;;8.02;;
59756;SDS011;45631;51.962;5.974;2023-08-01T03:49:36;14.90;;;7.15;;
59756;SDS011;45631;51.962;5.974;2023-08-01T03:52:05;16.75;;;7.50;;
59756;SDS011;45631;51.962;5.974;2023-08-01T03:54:34;17.85;;;7.13;;
59756;SDS011;45631;51.962;5.974;2023-08-01T03:57:03;14.18;;;6.80;;
59756;SDS011;45631;51.962;5.974;2023-08-01T03:59:33;18.95;;;7.22;;
59756;SDS011;45631;51.962;5.974;2023-08-01T04:02:01;17.48;;;7.15;;
59756;SDS011;45631;51.962;5.974;2023-08-01T04:04:30;19.15;;;6.70;;
59756;SDS011;45631;51.962;5.974;2023-08-01T04:06:58;13.93;;;6.55;;
59756;SDS011;45631;51.962;5.974;2023-08-01T04:13:59;17.23;;;6.40;;
59756;SDS011;45631;51.962;5.974;2023-08-01T04:16:29;13.60;;;6.40;;
59756;SDS011;45631;51.962;5.974;2023-08-01T04:18:57;16.75;;;6.55;;
59756;SDS011;45631;51.962;5.974;2023-08-01T04:21:25;19.48;;;6.78;;
59756;SDS011;45631;51.962;5.974;2023-08-01T04:23:54;14.73;;;5.65;;
59756;SDS011;45631;51.962;5.974;2023-08-01T04:26:22;14.57;;;6.25;;
59756;SDS011;45631;51.962;5.974;2023-08-01T04:28:50;16.13;;;6.55;;
59756;SDS011;45631;51.962;5.974;2023-08-01T04:31:19;17.00;;;7.18;;
59756;SDS011;45631;51.962;5.974;2023-08-01T04:33:48;20.70;;;7.88;;
59756;SDS011;45631;51.962;5.974;2023-08-01T04:36:17;16.50;;;7.20;;
59756;SDS011;45631;51.962;5.974;2023-08-01T04:38:46;14.27;;;7.05;;
59756;SDS011;45631;51.962;5.974;2023-08-01T04:41:14;13.82;;;7.53;;
59756;SDS011;45631;51.962;5.974;2023-08-01T04:43:43;16.42;;;6.93;;
59756;SDS011;45631;51.962;5.974;2023-08-01T04:46:11;17.40;;;7.57;;
59756;SDS011;45631;51.962;5.974;2023-08-01T04:48:41;18.08;;;6.90;;
59756;SDS011;45631;51.962;5.974;2023-08-01T04:51:10;16.20;;;7.57;;
59756;SDS011;45631;51.962;5.974;2023-08-01T04:53:41;15.07;;;7.10;;
59756;SDS011;45631;51.962;5.974;2023-08-01T04:56:09;19.40;;;6.80;;
59756;SDS011;45631;51.962;5.974;2023-08-01T04:58:37;15.90;;;6.35;;
59756;SDS011;45631;51.962;5.974;2023-08-01T05:01:06;14.60;;;7.15;;
59756;SDS011;45631;51.962;5.974;2023-08-01T05:03:34;18.05;;;7.30;;
59756;SDS011;45631;51.962;5.974;2023-08-01T05:06:02;13.55;;;7.10;;
59756;SDS011;45631;51.962;5.974;2023-08-01T05:08:32;14.65;;;6.88;;
59756;SDS011;45631;51.962;5.974;2023-08-01T05:11:01;19.90;;;6.93;;
59756;SDS011;45631;51.962;5.974;2023-08-01T05:13:29;15.80;;;7.43;;
59756;SDS011;45631;51.962;5.974;2023-08-01T05:15:57;14.30;;;7.03;;
59756;SDS011;45631;51.962;5.974;2023-08-01T05:18:26;13.73;;;6.63;;
59756;SDS011;45631;51.962;5.974;2023-08-01T05:20:54;16.23;;;6.65;;
59756;SDS011;45631;51.962;5.974;2023-08-01T05:23:22;15.68;;;6.40;;
59756;SDS011;45631;51.962;5.974;2023-08-01T05:25:52;15.68;;;6.85;;
59756;SDS011;45631;51.962;5.974;2023-08-01T05:28:20;17.55;;;6.40;;
59756;SDS011;45631;51.962;5.974;2023-08-01T05:30:48;18.33;;;7.85;;
59756;SDS011;45631;51.962;5.974;2023-08-01T05:33:17;13.50;;;6.90;;
59756;SDS011;45631;51.962;5.974;2023-08-01T05:35:48;14.25;;;6.97;;
59756;SDS011;45631;51.962;5.974;2023-08-01T05:38:17;16.05;;;7.40;;
59756;SDS011;45631;51.962;5.974;2023-08-01T05:40:45;16.88;;;7.90;;
59756;SDS011;45631;51.962;5.974;2023-08-01T05:43:15;16.90;;;7.57;;
59756;SDS011;45631;51.962;5.974;2023-08-01T05:45:44;16.30;;;7.47;;
59756;SDS011;45631;51.962;5.974;2023-08-01T05:48:12;16.55;;;7.78;;
59756;SDS011;45631;51.962;5.974;2023-08-01T05:50:41;15.27;;;7.50;;
59756;SDS011;45631;51.962;5.974;2023-08-01T05:53:09;16.30;;;7.68;;
59756;SDS011;45631;51.962;5.974;2023-08-01T05:55:37;15.95;;;7.43;;
59756;SDS011;45631;51.962;5.974;2023-08-01T05:58:06;17.02;;;7.65;;
59756;SDS011;45631;51.962;5.974;2023-08-01T06:00:35;15.38;;;7.80;;
59756;SDS011;45631;51.962;5.974;2023-08-01T06:03:04;16.88;;;7.38;;
59756;SDS011;45631;51.962;5.974;2023-08-01T06:05:32;15.70;;;7.30;;
59756;SDS011;45631;51.962;5.974;2023-08-01T06:08:01;16.70;;;7.65;;
59756;SDS011;45631;51.962;5.974;2023-08-01T06:10:30;17.38;;;7.43;;
59756;SDS011;45631;51.962;5.974;2023-08-01T06:12:58;16.58;;;7.07;;
59756;SDS011;45631;51.962;5.974;2023-08-01T06:15:27;16.38;;;7.88;;
59756;SDS011;45631;51.962;5.974;2023-08-01T06:17:56;14.68;;;6.65;;
59756;SDS011;45631;51.962;5.974;2023-08-01T06:20:25;18.23;;;6.93;;
59756;SDS011;45631;51.962;5.974;2023-08-01T06:22:53;14.75;;;6.43;;
59756;SDS011;45631;51.962;5.974;2023-08-01T06:25:22;19.17;;;7.35;;
59756;SDS011;45631;51.962;5.974;2023-08-01T06:27:50;14.75;;;6.70;;
59756;SDS011;45631;51.962;5.974;2023-08-01T06:30:19;15.90;;;6.93;;
59756;SDS011;45631;51.962;5.974;2023-08-01T06:32:47;17.63;;;6.65;;
59756;SDS011;45631;51.962;5.974;2023-08-01T06:35:20;11.90;;;6.18;;
59756;SDS011;45631;51.962;5.974;2023-08-01T06:37:48;17.10;;;6.60;;
59756;SDS011;45631;51.962;5.974;2023-08-01T06:40:17;14.73;;;6.20;;
59756;SDS011;45631;51.962;5.974;2023-08-01T06:42:45;15.05;;;6.53;;
59756;SDS011;45631;51.962;5.974;2023-08-01T06:45:13;14.15;;;6.00;;
59756;SDS011;45631;51.962;5.974;2023-08-01T06:47:42;13.18;;;6.05;;
59756;SDS011;45631;51.962;5.974;2023-08-01T06:50:10;16.02;;;6.40;;
59756;SDS011;45631;51.962;5.974;2023-08-01T06:52:40;14.90;;;6.57;;
59756;SDS011;45631;51.962;5.974;2023-08-01T06:55:08;11.52;;;6.15;;
59756;SDS011;45631;51.962;5.974;2023-08-01T06:57:36;13.60;;;6.45;;
59756;SDS011;45631;51.962;5.974;2023-08-01T07:00:05;15.40;;;5.82;;
59756;SDS011;45631;51.962;5.974;2023-08-01T07:02:34;13.85;;;4.95;;
59756;SDS011;45631;51.962;5.974;2023-08-01T07:05:03;16.33;;;5.20;;
59756;SDS011;45631;51.962;5.974;2023-08-01T07:07:32;12.80;;;4.88;;
59756;SDS011;45631;51.962;5.974;2023-08-01T07:10:02;13.73;;;5.55;;
59756;SDS011;45631;51.962;5.974;2023-08-01T07:12:30;14.02;;;5.43;;
59756;SDS011;45631;51.962;5.974;2023-08-01T07:14:58;14.15;;;5.20;;
59756;SDS011;45631;51.962;5.974;2023-08-01T07:17:28;14.27;;;4.93;;
59756;SDS011;45631;51.962;5.974;2023-08-01T07:19:56;11.40;;;4.65;;
59756;SDS011;45631;51.962;5.974;2023-08-01T07:22:25;12.05;;;4.93;;
59756;SDS011;45631;51.962;5.974;2023-08-01T07:24:53;12.48;;;4.82;;
59756;SDS011;45631;51.962;5.974;2023-08-01T07:27:23;9.52;;;3.88;;
59756;SDS011;45631;51.962;5.974;2023-08-01T07:29:51;12.23;;;4.85;;
59756;SDS011;45631;51.962;5.974;2023-08-01T07:32:21;13.15;;;4.93;;
59756;SDS011;45631;51.962;5.974;2023-08-01T07:34:50;12.45;;;4.68;;
59756;SDS011;45631;51.962;5.974;2023-08-01T07:37:18;10.73;;;3.83;;
59756;SDS011;45631;51.962;5.974;2023-08-01T07:39:46;9.63;;;3.80;;
59756;SDS011;45631;51.962;5.974;2023-08-01T07:42:14;13.20;;;4.22;;
59756;SDS011;45631;51.962;5.974;2023-08-01T07:44:44;10.50;;;3.33;;
59756;SDS011;45631;51.962;5.974;2023-08-01T07:47:13;11.50;;;3.10;;
59756;SDS011;45631;51.962;5.974;2023-08-01T07:49:41;11.23;;;2.83;;
59756;SDS011;45631;51.962;5.974;2023-08-01T07:52:09;11.50;;;2.95;;
59756;SDS011;45631;51.962;5.974;2023-08-01T07:54:38;8.75;;;3.00;;
59756;SDS011;45631;51.962;5.974;2023-08-01T07:57:06;10.98;;;3.38;;
59756;SDS011;45631;51.962;5.974;2023-08-01T07:59:34;7.95;;;2.92;;
59756;SDS011;45631;51.962;5.974;2023-08-01T08:02:04;10.32;;;3.22;;
59756;SDS011;45631;51.962;5.974;2023-08-01T08:04:33;12.13;;;3.33;;
59756;SDS011;45631;51.962;5.974;2023-08-01T08:07:01;11.85;;;3.22;;
59756;SDS011;45631;51.962;5.974;2023-08-01T08:09:30;8.13;;;2.67;;
59756;SDS011;45631;51.962;5.974;2023-08-01T08:11:58;9.73;;;3.05;;
59756;SDS011;45631;51.962;5.974;2023-08-01T08:14:26;8.77;;;3.05;;
59756;SDS011;45631;51.962;5.974;2023-08-01T08:16:55;9.02;;;3.03;;
59756;SDS011;45631;51.962;5.974;2023-08-01T08:19:25;10.80;;;3.28;;
59756;SDS011;45631;51.962;5.974;2023-08-01T08:21:53;10.10;;;3.20;;
59756;SDS011;45631;51.962;5.974;2023-08-01T08:24:21;10.88;;;3.33;;
59756;SDS011;45631;51.962;5.974;2023-08-01T08:26:50;11.07;;;3.50;;
59756;SDS011;45631;51.962;5.974;2023-08-01T08:29:18;10.98;;;3.20;;
59756;SDS011;45631;51.962;5.974;2023-08-01T08:31:46;9.75;;;3.47;;
59756;SDS011;45631;51.962;5.974;2023-08-01T08:34:15;9.43;;;3.10;;
59756;SDS011;45631;51.962;5.974;2023-08-01T08:36:44;10.18;;;3.05;;
59756;SDS011;45631;51.962;5.974;2023-08-01T08:39:13;10.82;;;2.92;;
59756;SDS011;45631;51.962;5.974;2023-08-01T08:41:43;11.05;;;3.15;;
59756;SDS011;45631;51.962;5.974;2023-08-01T08:44:14;10.45;;;3.10;;
59756;SDS011;45631;51.962;5.974;2023-08-01T08:46:44;10.88;;;3.60;;
59756;SDS011;45631;51.962;5.974;2023-08-01T08:49:15;11.02;;;3.30;;
59756;SDS011;45631;51.962;5.974;2023-08-01T08:51:48;8.57;;;3.28;;
59756;SDS011;45631;51.962;5.974;2023-08-01T08:54:17;11.93;;;3.40;;
59756;SDS011;45631;51.962;5.974;2023-08-01T08:56:45;9.65;;;2.90;;
59756;SDS011;45631;51.962;5.974;2023-08-01T08:59:14;10.18;;;2.92;;
59756;SDS011;45631;51.962;5.974;2023-08-01T09:01:43;9.48;;;3.20;;
59756;SDS011;45631;51.962;5.974;2023-08-01T09:04:12;8.77;;;2.80;;
59756;SDS011;45631;51.962;5.974;2023-08-01T09:06:43;9.07;;;2.60;;
59756;SDS011;45631;51.962;5.974;2023-08-01T09:09:18;9.52;;;2.38;;
59756;SDS011;45631;51.962;5.974;2023-08-01T09:11:49;9.98;;;2.90;;
59756;SDS011;45631;51.962;5.974;2023-08-01T09:14:19;9.70;;;2.80;;
59756;SDS011;45631;51.962;5.974;2023-08-01T09:16:48;8.52;;;2.72;;
59756;SDS011;45631;51.962;5.974;2023-08-01T09:19:17;5.68;;;2.50;;
59756;SDS011;45631;51.962;5.974;2023-08-01T09:21:46;8.07;;;2.30;;
59756;SDS011;45631;51.962;5.974;2023-08-01T09:24:15;9.65;;;2.17;;
59756;SDS011;45631;51.962;5.974;2023-08-01T09:26:46;6.57;;;2.03;;
59756;SDS011;45631;51.962;5.974;2023-08-01T09:29:16;10.45;;;2.35;;
59756;SDS011;45631;51.962;5.974;2023-08-01T09:31:45;7.90;;;2.40;;
59756;SDS011;45631;51.962;5.974;2023-08-01T09:34:19;7.50;;;1.90;;
59756;SDS011;45631;51.962;5.974;2023-08-01T09:36:49;6.93;;;2.10;;
59756;SDS011;45631;51.962;5.974;2023-08-01T09:39:18;7.75;;;1.92;;
59756;SDS011;45631;51.962;5.974;2023-08-01T09:41:55;7.75;;;2.00;;
59756;SDS011;45631;51.962;5.974;2023-08-01T09:44:25;6.97;;;2.17;;
59756;SDS011;45631;51.962;5.974;2023-08-01T09:46:55;7.90;;;1.60;;
59756;SDS011;45631;51.962;5.974;2023-08-01T09:49:24;9.18;;;1.83;;
59756;SDS011;45631;51.962;5.974;2023-08-01T09:51:52;6.15;;;1.58;;
59756;SDS011;45631;51.962;5.974;2023-08-01T09:54:21;4.75;;;1.50;;
59756;SDS011;45631;51.962;5.974;2023-08-01T09:56:52;6.30;;;1.70;;
59756;SDS011;45631;51.962;5.974;2023-08-01T09:59:24;6.65;;;1.88;;
59756;SDS011;45631;51.962;5.974;2023-08-01T10:01:54;6.50;;;1.70;;
59756;SDS011;45631;51.962;5.974;2023-08-01T10:04:25;7.07;;;2.00;;
59756;SDS011;45631;51.962;5.974;2023-08-01T10:06:57;6.70;;;1.75;;
59756;SDS011;45631;51.962;5.974;2023-08-01T10:09:27;6.45;;;1.65;;
59756;SDS011;45631;51.962;5.974;2023-08-01T10:11:57;7.88;;;2.13;;
59756;SDS011;45631;51.962;5.974;2023-08-01T10:14:27;6.50;;;1.90;;
59756;SDS011;45631;51.962;5.974;2023-08-01T10:16:56;5.93;;;1.63;;
59756;SDS011;45631;51.962;5.974;2023-08-01T10:19:25;8.30;;;2.10;;
59756;SDS011;45631;51.962;5.974;2023-08-01T10:21:54;6.70;;;2.00;;
59756;SDS011;45631;51.962;5.974;2023-08-01T10:24:23;7.78;;;2.08;;
59756;SDS011;45631;51.962;5.974;2023-08-01T10:26:53;6.25;;;1.60;;
59756;SDS011;45631;51.962;5.974;2023-08-01T10:29:21;6.30;;;1.63;;
59756;SDS011;45631;51.962;5.974;2023-08-01T10:31:51;8.90;;;1.73;;
59756;SDS011;45631;51.962;5.974;2023-08-01T10:34:21;6.43;;;1.90;;
59756;SDS011;45631;51.962;5.974;2023-08-01T10:36:55;9.10;;;2.50;;
59756;SDS011;45631;51.962;5.974;2023-08-01T10:39:24;7.20;;;2.10;;
59756;SDS011;45631;51.962;5.974;2023-08-01T10:41:57;6.30;;;1.52;;
59756;SDS011;45631;51.962;5.974;2023-08-01T10:46:57;8.43;;;2.20;;
59756;SDS011;45631;51.962;5.974;2023-08-01T10:49:33;6.03;;;1.60;;
59756;SDS011;45631;51.962;5.974;2023-08-01T10:52:04;5.47;;;1.60;;
59756;SDS011;45631;51.962;5.974;2023-08-01T10:54:44;7.47;;;1.83;;
59756;SDS011;45631;51.962;5.974;2023-08-01T10:57:15;5.57;;;1.50;;
59756;SDS011;45631;51.962;5.974;2023-08-01T10:59:44;9.18;;;2.22;;
59756;SDS011;45631;51.962;5.974;2023-08-01T11:02:19;7.53;;;1.77;;
59756;SDS011;45631;51.962;5.974;2023-08-01T11:04:57;8.38;;;2.33;;
59756;SDS011;45631;51.962;5.974;2023-08-01T11:07:27;8.00;;;1.85;;
59756;SDS011;45631;51.962;5.974;2023-08-01T11:10:05;8.27;;;2.10;;
59756;SDS011;45631;51.962;5.974;2023-08-01T11:12:35;5.90;;;1.95;;
59756;SDS011;45631;51.962;5.974;2023-08-01T11:15:05;7.38;;;2.25;;
59756;SDS011;45631;51.962;5.974;2023-08-01T11:17:37;6.65;;;2.03;;
59756;SDS011;45631;51.962;5.974;2023-08-01T11:20:06;8.00;;;2.53;;
59756;SDS011;45631;51.962;5.974;2023-08-01T11:22:36;8.32;;;1.70;;
59756;SDS011;45631;51.962;5.974;2023-08-01T11:25:06;5.78;;;1.98;;
59756;SDS011;45631;51.962;5.974;2023-08-01T11:27:35;9.88;;;2.28;;
59756;SDS011;45631;51.962;5.974;2023-08-01T11:30:03;5.22;;;1.50;;
59756;SDS011;45631;51.962;5.974;2023-08-01T11:32:33;7.93;;;1.60;;
59756;SDS011;45631;51.962;5.974;2023-08-01T11:35:03;7.32;;;1.88;;
59756;SDS011;45631;51.962;5.974;2023-08-01T11:37:32;6.53;;;1.77;;
59756;SDS011;45631;51.962;5.974;2023-08-01T11:40:01;7.13;;;1.70;;
59756;SDS011;45631;51.962;5.974;2023-08-01T11:42:30;6.90;;;1.80;;
59756;SDS011;45631;51.962;5.974;2023-08-01T11:45:09;5.60;;;1.90;;
59756;SDS011;45631;51.962;5.974;2023-08-01T11:47:44;8.60;;;2.03;;
59756;SDS011;45631;51.962;5.974;2023-08-01T11:50:20;9.20;;;1.90;;
59756;SDS011;45631;51.962;5.974;2023-08-01T11:52:49;6.43;;;1.92;;
59756;SDS011;45631;51.962;5.974;2023-08-01T11:55:21;11.48;;;2.25;;
59756;SDS011;45631;51.962;5.974;2023-08-01T11:57:57;7.45;;;1.85;;
59756;SDS011;45631;51.962;5.974;2023-08-01T12:00:26;7.07;;;1.80;;
59756;SDS011;45631;51.962;5.974;2023-08-01T12:03:05;8.75;;;1.90;;
59756;SDS011;45631;51.962;5.974;2023-08-01T12:05:36;5.15;;;1.60;;
59756;SDS011;45631;51.962;5.974;2023-08-01T12:08:08;8.13;;;1.85;;
59756;SDS011;45631;51.962;5.974;2023-08-01T12:10:37;7.15;;;1.80;;
59756;SDS011;45631;51.962;5.974;2023-08-01T12:13:07;5.60;;;1.65;;
59756;SDS011;45631;51.962;5.974;2023-08-01T12:15:46;6.15;;;1.48;;
59756;SDS011;45631;51.962;5.974;2023-08-01T12:18:21;4.47;;;1.58;;
59756;SDS011;45631;51.962;5.974;2023-08-01T12:21:12;6.53;;;1.40;;
59756;SDS011;45631;51.962;5.974;2023-08-01T12:23:40;4.53;;;1.25;;
59756;SDS011;45631;51.962;5.974;2023-08-01T12:26:08;4.20;;;1.30;;
59756;SDS011;45631;51.962;5.974;2023-08-01T12:28:37;6.63;;;1.40;;
59756;SDS011;45631;51.962;5.974;2023-08-01T12:31:05;4.47;;;1.00;;
59756;SDS011;45631;51.962;5.974;2023-08-01T12:33:34;5.30;;;1.30;;
59756;SDS011;45631;51.962;5.974;2023-08-01T12:36:02;5.22;;;1.25;;
59756;SDS011;45631;51.962;5.974;2023-08-01T12:38:34;4.70;;;1.45;;
59756;SDS011;45631;51.962;5.974;2023-08-01T12:41:02;7.63;;;1.67;;
59756;SDS011;45631;51.962;5.974;2023-08-01T12:43:31;6.90;;;1.60;;
59756;SDS011;45631;51.962;5.974;2023-08-01T12:46:00;7.43;;;1.80;;
59756;SDS011;45631;51.962;5.974;2023-08-01T12:48:28;7.57;;;1.83;;
59756;SDS011;45631;51.962;5.974;2023-08-01T12:50:57;8.35;;;1.55;;
59756;SDS011;45631;51.962;5.974;2023-08-01T12:53:25;7.55;;;2.08;;
59756;SDS011;45631;51.962;5.974;2023-08-01T12:55:55;6.68;;;1.83;;
59756;SDS011;45631;51.962;5.974;2023-08-01T12:58:23;6.93;;;2.00;;
59756;SDS011;45631;51.962;5.974;2023-08-01T13:00:51;6.63;;;1.95;;
59756;SDS011;45631;51.962;5.974;2023-08-01T13:03:20;8.43;;;1.83;;
59756;SDS011;45631;51.962;5.974;2023-08-01T13:05:48;9.82;;;2.40;;
59756;SDS011;45631;51.962;5.974;2023-08-01T13:08:17;5.38;;;1.80;;
59756;SDS011;45631;51.962;5.974;2023-08-01T13:10:45;6.18;;;1.67;;
59756;SDS011;45631;51.962;5.974;2023-08-01T13:13:15;9.10;;;2.50;;
59756;SDS011;45631;51.962;5.974;2023-08-01T13:15:44;8.73;;;2.17;;
59756;SDS011;45631;51.962;5.974;2023-08-01T13:18:12;7.38;;;1.83;;
59756;SDS011;45631;51.962;5.974;2023-08-01T13:20:41;9.25;;;2.20;;
59756;SDS011;45631;51.962;5.974;2023-08-01T13:23:10;9.13;;;2.00;;
59756;SDS011;45631;51.962;5.974;2023-08-01T13:25:38;8.35;;;1.80;;
59756;SDS011;45631;51.962;5.974;2023-08-01T13:28:06;8.93;;;2.13;;
59756;SDS011;45631;51.962;5.974;2023-08-01T13:30:37;6.82;;;1.92;;
59756;SDS011;45631;51.962;5.974;2023-08-01T13:33:05;7.88;;;1.92;;
59756;SDS011;45631;51.962;5.974;2023-08-01T13:35:33;10.20;;;2.45;;
59756;SDS011;45631;51.962;5.974;2023-08-01T13:38:02;7.15;;;1.88;;
59756;SDS011;45631;51.962;5.974;2023-08-01T13:40:31;6.55;;;1.73;;
59756;SDS011;45631;51.962;5.974;2023-08-01T13:43:00;5.38;;;1.88;;
59756;SDS011;45631;51.962;5.974;2023-08-01T13:45:29;8.32;;;2.30;;
59756;SDS011;45631;51.962;5.974;2023-08-01T13:48:00;7.88;;;2.00;;
59756;SDS011;45631;51.962;5.974;2023-08-01T13:50:28;7.15;;;1.90;;
59756;SDS011;45631;51.962;5.974;2023-08-01T13:52:56;6.78;;;1.75;;
59756;SDS011;45631;51.962;5.974;2023-08-01T13:55:25;5.32;;;1.42;;
59756;SDS011;45631;51.962;5.974;2023-08-01T13:57:53;4.65;;;1.45;;
59756;SDS011;45631;51.962;5.974;2023-08-01T14:00:21;6.10;;;1.65;;
59756;SDS011;45631;51.962;5.974;2023-08-01T14:02:50;6.63;;;1.80;;
59756;SDS011;45631;51.962;5.974;2023-08-01T14:05:20;5.85;;;1.50;;
59756;SDS011;45631;51.962;5.974;2023-08-01T14:07:48;7.43;;;1.85;;
59756;SDS011;45631;51.962;5.974;2023-08-01T14:10:17;8.55;;;2.08;;
59756;SDS011;45631;51.962;5.974;2023-08-01T14:12:45;6.35;;;1.83;;
59756;SDS011;45631;51.962;5.974;2023-08-01T14:15:13;3.85;;;1.42;;
59756;SDS011;45631;51.962;5.974;2023-08-01T14:17:42;6.65;;;1.50;;
59756;SDS011;45631;51.962;5.974;2023-08-01T14:20:10;8.90;;;1.80;;
59756;SDS011;45631;51.962;5.974;2023-08-01T14:22:42;6.18;;;1.67;;
59756;SDS011;45631;51.962;5.974;2023-08-01T14:25:10;6.93;;;1.67;;
59756;SDS011;45631;51.962;5.974;2023-08-01T14:27:39;7.72;;;1.70;;
59756;SDS011;45631;51.962;5.974;2023-08-01T14:30:07;5.22;;;1.52;;
59756;SDS011;45631;51.962;5.974;2023-08-01T14:32:36;6.78;;;1.45;;
59756;SDS011;45631;51.962;5.974;2023-08-01T14:35:06;4.63;;;1.38;;
59756;SDS011;45631;51.962;5.974;2023-08-01T14:37:36;4.72;;;1.60;;
59756;SDS011;45631;51.962;5.974;2023-08-01T14:40:06;6.50;;;1.50;;
59756;SDS011;45631;51.962;5.974;2023-08-01T14:42:35;5.57;;;1.80;;
59756;SDS011;45631;51.962;5.974;2023-08-01T14:45:07;6.72;;;1.70;;
59756;SDS011;45631;51.962;5.974;2023-08-01T14:47:36;5.30;;;1.60;;
59756;SDS011;45631;51.962;5.974;2023-08-01T14:50:05;3.97;;;1.40;;
59756;SDS011;45631;51.962;5.974;2023-08-01T14:52:33;6.65;;;1.58;;
59756;SDS011;45631;51.962;5.974;2023-08-01T14:55:02;7.60;;;1.40;;
59756;SDS011;45631;51.962;5.974;2023-08-01T14:57:32;6.15;;;1.48;;
59756;SDS011;45631;51.962;5.974;2023-08-01T15:00:00;7.65;;;2.10;;
59756;SDS011;45631;51.962;5.974;2023-08-01T15:02:30;5.32;;;1.58;;
59756;SDS011;45631;51.962;5.974;2023-08-01T15:04:58;6.65;;;1.80;;
59756;SDS011;45631;51.962;5.974;2023-08-01T15:07:26;5.60;;;1.50;;
59756;SDS011;45631;51.962;5.974;2023-08-01T15:09:55;6.43;;;2.08;;
59756;SDS011;45631;51.962;5.974;2023-08-01T15:12:23;10.20;;;2.00;;
59756;SDS011;45631;51.962;5.974;2023-08-01T15:14:54;8.65;;;2.25;;
59756;SDS011;45631;51.962;5.974;2023-08-01T15:17:23;7.47;;;1.60;;